Flight Track Log - Related Links

Times and Time Zones

All times are in EDT time to prevent confusion due to time zone crossing. See the N598AT flight status page for this flight to view local times or setup timezone preferences in your user account.

Time Position Orientation Groundspeed Altitude Reporting Facility
EDT Latitude Longitude Course Direction KTS MPH feet Rate Location/Type
Sun 02:24:37 PM 30.3278 -81.5064 160° South 123 142 400  Level Jacksonville Center
Sun 02:25:20 PM 30.3089 -81.4850 136° Southeast 136 157 1,500 1,418 Climbing Jacksonville Center
Sun 02:26:27 PM 30.2792 -81.4444 130° Southeast 143 165 3,000 1,250 Climbing Jacksonville Center
Sun 02:27:20 PM 30.2517 -81.4208 143° Southeast 157 181 4,000 1,115 Climbing Jacksonville Center
Sun 02:28:20 PM 30.2178 -81.3806 134° Southeast 173 199 5,100 1,250 Climbing Jacksonville Center
Sun 02:29:20 PM 30.1839 -81.3378 132° Southeast 192 221 6,500 1,450 Climbing Jacksonville Center
Sun 02:30:00 PM 29.9996 -81.3736 160° South  Level FlightAware Approximate
Sun 02:30:20 PM 30.1358 -81.3219 164° South 177 204 8,000  Level Jacksonville Center
Sun 02:31:20 PM 30.0939 -81.3128 169° South 162 186 9,600 1,450 Climbing Jacksonville Center
Sun 02:32:20 PM 30.0478 -81.3017 168° South 162 186 10,900 1,250 Climbing Jacksonville Center
Sun 02:33:20 PM 30.0039 -81.2903 167° South 162 186 12,100 1,250 Climbing Jacksonville Center
Sun 02:34:20 PM 29.9597 -81.2792 168° South 162 186 13,400 1,250 Climbing Jacksonville Center
Sun 02:35:20 PM 29.9158 -81.2678 167° South 162 186 14,600 1,100 Climbing Jacksonville Center
Sun 02:36:20 PM 29.8697 -81.2567 168° South 162 186 15,600 900 Climbing Jacksonville Center
Sun 02:37:20 PM 29.8217 -81.2456 169° South 162 186 16,400 800 Climbing Jacksonville Center
Sun 02:38:20 PM 29.7714 -81.2344 169° South 169 194 17,200 700 Climbing Jacksonville Center
Sun 02:39:20 PM 29.7211 -81.2208 167° South 180 207 17,800 650 Climbing Jacksonville Center
Sun 02:40:20 PM 29.6731 -81.2075 166° South 185 213 18,500 2,100 Climbing Jacksonville Center
Sun 02:41:20 PM 29.6206 -81.1964 170° South 185 213 22,000 700 Climbing Jacksonville Center
Sun 02:42:20 PM 29.5703 -81.1831 167° South 185 213 19,900 -800 Descending Jacksonville Center
Sun 02:43:20 PM 29.5181 -81.1694 167° South 185 213 20,400 500 Climbing Jacksonville Center
Sun 02:44:20 PM 29.4739 -81.1558 165° South 185 213 20,900 500 Climbing Jacksonville Center
Sun 02:45:20 PM 29.4194 -81.1425 168° South 185 213 21,400 500 Climbing Jacksonville Center
Sun 02:46:20 PM 29.3672 -81.1317 170° South 191 220 21,900 300 Climbing Jacksonville Center
Sun 02:47:20 PM 29.3083 -81.1136 165° South 203 234 22,000 50 Climbing Jacksonville Center
Sun 02:48:20 PM 29.2519 -81.0956 164° South 208 239 22,000  Level Jacksonville Center
Sun 02:49:20 PM 29.1908 -81.0706 160° South 214 246 22,000  Level Jacksonville Center
Sun 02:50:20 PM 29.1322 -81.0431 158° South 224 258 22,000  Level Jacksonville Center
Sun 02:51:53 PM 29.0339 -80.9958 157° South 236 272 22,000  Level Miami Center
Sun 02:52:53 PM 28.9761 -80.9678 157° South 236 272 22,000  Level Miami Center
Sun 02:53:53 PM 28.9186 -80.9419 159° South 230 265 22,000  Level Miami Center
Sun 02:54:53 PM 28.8672 -80.9139 154° Southeast 218 251 22,000  Level Miami Center
Sun 02:55:53 PM 28.8033 -80.8903 162° South 218 251 22,000  Level Miami Center
Sun 02:56:53 PM 28.7433 -80.8692 163° South 225 259 22,000  Level Miami Center
Sun 02:57:53 PM 28.6856 -80.8481 162° South 225 259 22,000  Level Miami Center
Sun 02:58:53 PM 28.6294 -80.8414 174° South 225 259 22,000  Level Miami Center
Sun 02:59:53 PM 28.5708 -80.8486 186° South 220 253 22,000  Level Miami Center
Sun 03:00:53 PM 28.5081 -80.8536 184° South 220 253 22,000  Level Miami Center
Sun 03:01:53 PM 28.4453 -80.8583 184° South 220 253 22,000  Level Miami Center
Sun 03:02:53 PM 28.3825 -80.8633 184° South 220 253 22,000  Level Miami Center
Sun 03:03:53 PM 28.3239 -80.8731 188° South 220 253 22,000  Level Miami Center
Sun 03:04:53 PM 28.2631 -80.8803 186° South 220 253 22,000  Level Miami Center
Sun 03:05:53 PM 28.2025 -80.8875 186° South 220 253 22,000  Level Miami Center
Sun 03:06:53 PM 28.1356 -80.8944 185° South 220 253 22,000  Level Miami Center
Sun 03:07:53 PM 28.0811 -80.8997 185° South 220 253 22,000  Level Miami Center
Sun 03:08:53 PM 28.0203 -80.9069 186° South 220 253 22,000  Level Miami Center
Sun 03:09:53 PM 27.9553 -80.9139 185° South 220 253 22,000  Level Miami Center
Sun 03:10:53 PM 27.8947 -80.9189 184° South 220 253 22,000  Level Miami Center
Sun 03:11:53 PM 27.8342 -80.9236 184° South 225 259 22,000  Level Miami Center
Sun 03:12:53 PM 27.7692 -80.9308 186° South 225 259 22,000  Level Miami Center
Sun 03:13:53 PM 27.7086 -80.9333 182° South 225 259 22,000  Level Miami Center
Sun 03:14:53 PM 27.6500 -80.9383 184° South 225 259 22,000  Level Miami Center
Sun 03:15:53 PM 27.5872 -80.9431 184° South 225 259 22,000  Level Miami Center
Sun 03:16:53 PM 27.5244 -80.9525 188° South 225 259 22,000  Level Miami Center
Sun 03:17:53 PM 27.4594 -80.9594 185° South 225 259 22,000  Level Miami Center
Sun 03:18:53 PM 27.3967 -80.9667 186° South 225 259 22,000  Level Miami Center
Sun 03:19:53 PM 27.3358 -80.9739 186° South 225 259 22,000  Level Miami Center
Sun 03:20:53 PM 27.2814 -80.9811 187° South 220 253 22,000  Level Miami Center
Sun 03:21:53 PM 27.2186 -80.9883 186° South 220 253 22,000  Level Miami Center
Sun 03:22:53 PM 27.1578 -80.9956 186° South 225 259 22,000  Level Miami Center
Sun 03:23:53 PM 27.0950 -81.0025 186° South 225 259 22,000  Level Miami Center
Sun 03:24:53 PM 27.0342 -81.0075 184° South 225 259 22,000  Level Miami Center
Sun 03:25:53 PM 26.9714 -81.0169 188° South 225 259 22,000  Level Miami Center
Sun 03:26:53 PM 26.9106 -81.0217 184° South 220 253 22,000  Level Miami Center
Sun 03:27:53 PM 26.8458 -81.0286 185° South 220 253 22,000  Level Miami Center
Sun 03:28:53 PM 26.7831 -81.0333 184° South 225 259 22,000  Level Miami Center
Sun 03:29:53 PM 26.7139 -81.0425 187° South 225 259 22,000  Level Miami Center
Sun 03:30:53 PM 26.6572 -81.0475 185° South 230 265 22,000  Level Miami Center
Sun 03:31:53 PM 26.5881 -81.0544 185° South 230 265 22,000  Level Miami Center
Sun 03:32:53 PM 26.5253 -81.0614 186° South 235 270 22,000  Level Miami Center
Sun 03:33:53 PM 26.4644 -81.0686 186° South 235 270 22,000  Level Miami Center
Sun 03:34:53 PM 26.3994 -81.0778 187° South 230 265 22,000  Level Miami Center
Sun 03:35:53 PM 26.3347 -81.0847 185° South 230 265 22,000  Level Miami Center
Sun 03:36:53 PM 26.2717 -81.0917 186° South 230 265 22,000  Level Miami Center
Sun 03:37:53 PM 26.2111 -81.0967 184° South 235 270 22,000  Level Miami Center
Sun 03:38:53 PM 26.1464 -81.0989 182° South 235 270 22,000 -200 Level Miami Center
Sun 03:39:53 PM 26.0878 -81.0969 178° South 235 270 21,600 -650 Descending Miami Center
Sun 03:40:53 PM 26.0169 -81.0942 178° South 241 277 20,700 -950 Descending Miami Center
Sun 03:41:53 PM 25.9439 -81.0939 180° South 253 291 19,700 -1,000 Descending Miami Center
Sun 03:42:53 PM 25.8667 -81.0914 178° South 263 303 18,700 -950 Descending Miami Center
Sun 03:43:53 PM 25.7894 -81.0886 178° South 275 316 17,800 -950 Descending Miami Center
Sun 03:44:53 PM 25.7122 -81.0906 181° South 275 316 16,800 -1,000 Descending Miami Center
Sun 03:45:53 PM 25.6408 -81.1017 188° South 275 316 15,800 -1,000 Descending Miami Center
Sun 03:46:53 PM 25.5753 -81.1294 201° Southwest 259 298 14,800 -1,000 Descending Miami Center
Sun 03:47:53 PM 25.5178 -81.1667 210° Southwest 246 283 13,800 -1,000 Descending Miami Center
Sun 03:48:53 PM 25.4683 -81.2178 223° Southwest 246 283 12,800 -1,000 Descending Miami Center
Sun 03:49:53 PM 25.4167 -81.2642 219° Southwest 246 283 11,800 -1,000 Descending Miami Center
Sun 03:50:53 PM 25.3522 -81.2525 171° South 216 249 10,800 -1,000 Descending Miami Center
Sun 03:51:53 PM 25.2861 -81.2342 166° South 221 254 9,800 -1,000 Descending Miami Center
Sun 03:52:53 PM 25.2239 -81.2136 163° South 234 269 8,800 -1,050 Descending Miami Center
Sun 03:53:53 PM 25.1539 -81.1881 162° South 239 275 7,700 -1,100 Descending Miami Center
Sun 03:54:53 PM 25.0939 -81.1675 163° South 239 275 6,600 -1,200 Descending Miami Center
Sun 03:55:53 PM 25.0317 -81.1494 165° South 239 275 5,300 -1,350 Descending Miami Center
Sun 03:56:53 PM 24.9717 -81.1289 163° South 239 275 3,900 -1,400 Descending Miami Center

Login

Don't have an account? Register now (free) for customized features, flight alerts, and more!